LZSL Airport Information

Runway Information
Runway 18 Length 7874 ft width 187 ft
Elevation 1044 ft Threshold 0 ft Heading 182
Runway 36 Length 7874 ft Width 187 ft
Elevation 1014 ft Threshold 0 ft Heading 2
Airport Frequencies
Type APP Name SLIAČ APPR Frequency 119.15 MHZ
Type TWR Name SLIAČ TOWE Frequency 122.9 MHZ
Airport Navaids
Type VOR-DME Name Sliac Frequency 114000 KHZ
Airport Weather Information & NOTAM
ADDS - METARS form results

(2312 UTC 18 February 2019)
Data provider http://aviationweather.gov/metar/data/
 
METAR text: LZSL 182300Z 00000KT 9999 5000S NSC M02/M03 Q1022
Conditions at: LZSL (SLIAC , SK) observed 2300 UTC 18 February 2019
Temperature: -2.0°C (28°F)
Dewpoint: -3.0°C (27°F) [RH = 93%]
Pressure (altimeter): 30.18 inches Hg (1022.0 mb)
Winds: calm
Visibility: 6 or more miles (10+ km)
Ceiling: at least 12,000 feet AGL
Clouds: sky clear below 12,000 feet AGL
Weather: no significant weather observed at this time

METAR text: LZSL 182230Z 23001KT 7000 NSC M02/M03 Q1023
Conditions at: LZSL (SLIAC , SK) observed 2230 UTC 18 February 2019
Temperature: -2.0°C (28°F)
Dewpoint: -3.0°C (27°F) [RH = 93%]
Pressure (altimeter): 30.21 inches Hg (1023.0 mb)
Winds: from the SW (230 degrees) at 1 MPH (1 knots; 0.5 m/s)
Visibility: 4 miles ( 7 km)
Ceiling: at least 12,000 feet AGL
Clouds: sky clear below 12,000 feet AGL
Weather: no significant weather observed at this time

Forecast for: LZSL (SLIAC , SK)
Text: TAF LZSL 182300Z 1900/1909 VRB02KT 6000 NSC
Forecast period: 0000 to 0900 UTC 19 February 2019
Forecast type: FROM: standard forecast or significant change
Winds: variable direction winds at 2 MPH (2 knots; 1.0 m/s)
Visibility: 4 miles (6 km)
Ceiling: unknown
Clouds: missing
Weather: no significant weather forecast for this period
Text: TEMPO 1900/1908 2000 BCFG SCT002
Forecast period: 0000 to 0800 UTC 19 February 2019
Forecast type: TEMPORARY: The following changes expected for less than half the time period
Visibility: 1.24 miles (2.00 km)
Ceiling: at least 12,000 feet AGL
Clouds: scattered clouds at 200 feet AGL
Weather: BCFG  (patches of fog)
Text: PROB40
Forecast period: 0200 to 0600 UTC 19 February 2019
Forecast type: TEMPORARY: The following changes expected for less than half the time period
Visibility: 0.19 miles (0.31 km)
Ceiling: 100 feet AGL
Clouds: overcast cloud deck at 100 feet AGL
Weather: FZFG  (freezing fog)